Worthington, Missouri
Current Conditions -  °F | °C
As of 11:10 AM on Sunday 21 Dec 2014 (Local Time) from KTVK Reporting Station
Overcast Overcast  
Wind Chill:   Ceiling: 1300
Heat Index:   Visibility: 10mi
Dew Point:   Wind: 14mph
Humidity: 100%   Direction: 160°SSE
Pressure: 29.99"   Gusts: NA
Location:  40.41°N, 92.69°W
Report Text: KTVK 211710Z AUTO 16012KT 10SM BKN013 OVC023 04/04 A2999 RMK AO2
Loading
Personal Weather Stations






























Interactive Weather Map New forecast layout! Learn more

10-Day Weather Forecast

Advertisements
Track Severe Weather on mobile